createdAt,value
2023-08-04T00:00:24.217Z,0.45
2023-08-04T00:01:41.201Z,0.25
2023-08-04T00:02:58.251Z,0.25
2023-08-04T00:04:15.148Z,0.05
2023-08-04T00:05:32.150Z,0.2
2023-08-04T00:06:49.254Z,0.16
2023-08-04T00:08:06.137Z,0
2023-08-04T00:09:23.081Z,0.34
2023-08-04T00:10:40.248Z,0.32
2023-08-04T00:11:57.144Z,0.21
2023-08-04T00:13:14.151Z,0.39
2023-08-04T00:14:31.271Z,0.66
2023-08-04T00:15:48.119Z,0.24
2023-08-04T00:17:05.209Z,0.52
2023-08-04T00:18:22.092Z,0.26
2023-08-04T00:19:39.228Z,0.12
2023-08-04T00:20:56.213Z,0.24
2023-08-04T00:22:13.176Z,0.27
2023-08-04T00:23:30.220Z,0.13
2023-08-04T00:24:47.149Z,0.24
2023-08-04T00:26:04.271Z,0.33
2023-08-04T00:27:21.164Z,0.24
2023-08-04T00:28:38.117Z,0.16
2023-08-04T00:29:55.259Z,0
2023-08-04T00:31:12.305Z,0.2
2023-08-04T00:32:29.245Z,0
2023-08-04T00:33:46.270Z,0.64
2023-08-04T00:35:03.196Z,0.51
2023-08-04T00:36:20.138Z,0.73
2023-08-04T00:37:37.288Z,0.32
2023-08-04T00:38:54.177Z,0.36
2023-08-04T00:40:11.298Z,0.27
2023-08-04T00:41:28.150Z,0.45
2023-08-04T00:42:45.338Z,0.82
2023-08-04T00:44:02.334Z,0.82
2023-08-04T00:45:19.164Z,0.24
2023-08-04T00:46:36.245Z,0.31
2023-08-04T00:47:53.207Z,0.68
2023-08-04T00:49:10.308Z,0.33
2023-08-04T00:50:27.287Z,0.27
2023-08-04T00:51:44.331Z,0.51
2023-08-04T00:53:01.216Z,0.67
2023-08-04T00:54:18.300Z,0.24
2023-08-04T00:55:35.197Z,0.15
2023-08-04T00:56:52.423Z,0.35
2023-08-04T00:58:09.235Z,0.38
2023-08-04T00:59:26.210Z,0.47
2023-08-04T01:00:43.603Z,0.19
2023-08-04T01:02:00.426Z,0.54
2023-08-04T01:03:17.197Z,0.5
2023-08-04T01:04:34.237Z,0.46
2023-08-04T01:05:51.186Z,0.46
2023-08-04T01:07:08.277Z,0.39
2023-08-04T01:08:25.300Z,0.69
2023-08-04T01:09:42.296Z,0.66
2023-08-04T01:10:59.250Z,0.56
2023-08-04T01:12:16.385Z,0.83
2023-08-04T01:13:33.224Z,0.92
2023-08-04T01:14:50.302Z,0.91
2023-08-04T01:16:07.273Z,0.97
2023-08-04T01:17:24.608Z,0.92
2023-08-04T01:18:41.290Z,0.75
2023-08-04T01:19:58.205Z,0.87
2023-08-04T01:21:15.297Z,0.74
2023-08-04T01:22:32.268Z,0.62
2023-08-04T01:23:49.653Z,1.07
2023-08-04T01:25:06.240Z,0.72
2023-08-04T01:26:23.332Z,0.52
2023-08-04T01:27:40.372Z,0.58
2023-08-04T01:28:57.279Z,0.92
2023-08-04T01:30:14.286Z,0.93
2023-08-04T01:31:31.332Z,0.86
2023-08-04T01:32:48.405Z,0.57
2023-08-04T01:34:05.324Z,0.76
2023-08-04T01:35:22.315Z,0.79
2023-08-04T01:36:39.295Z,0.93
2023-08-04T01:37:56.330Z,0.69
2023-08-04T01:39:13.275Z,0.76
2023-08-04T01:40:30.298Z,0.62
2023-08-04T01:41:47.607Z,0.93
2023-08-04T01:43:04.277Z,1.08
2023-08-04T01:44:21.305Z,1.06
2023-08-04T01:45:38.313Z,0.47
2023-08-04T01:46:55.339Z,0.73
2023-08-04T01:48:12.273Z,0.4
2023-08-04T01:49:29.356Z,0.95
2023-08-04T01:50:46.331Z,1.07
2023-08-04T01:52:03.303Z,0.91
2023-08-04T01:53:20.540Z,0.62
2023-08-04T01:54:37.345Z,0.98
2023-08-04T01:55:54.365Z,0.82
2023-08-04T01:57:11.327Z,0.77
2023-08-04T01:58:28.336Z,0.62
2023-08-04T01:59:45.356Z,0.49
2023-08-04T02:01:02.424Z,0.7
2023-08-04T02:02:19.383Z,0.42
2023-08-04T02:03:36.379Z,0.26
2023-08-04T02:04:53.325Z,0.41
2023-08-04T02:06:10.392Z,0.22
2023-08-04T02:07:27.289Z,0
2023-08-04T02:08:44.288Z,0
2023-08-04T02:10:01.452Z,0
2023-08-04T02:11:18.361Z,0
2023-08-04T02:12:35.327Z,0
2023-08-04T02:13:52.454Z,0
2023-08-04T02:15:09.439Z,0
2023-08-04T02:16:26.371Z,0
2023-08-04T02:17:43.435Z,0.51
2023-08-04T02:19:00.325Z,0.64
2023-08-04T02:20:17.375Z,0.28
2023-08-04T02:21:34.379Z,0.1
2023-08-04T02:22:51.380Z,0
2023-08-04T02:24:08.432Z,0
2023-08-04T02:25:25.352Z,0.33
2023-08-04T02:26:42.377Z,0.51
2023-08-04T02:27:59.417Z,0.92
2023-08-04T02:29:16.361Z,1.49
2023-08-04T02:30:33.385Z,1.57
2023-08-04T02:31:50.782Z,1.29
2023-08-04T02:33:07.379Z,1.35
2023-08-04T02:34:24.631Z,1.88
2023-08-04T02:35:41.425Z,1.33
2023-08-04T02:36:58.356Z,1.37
2023-08-04T02:38:15.402Z,1.81
2023-08-04T02:39:32.468Z,1.45
2023-08-04T02:40:49.345Z,0.9
2023-08-04T02:42:06.385Z,1.03
2023-08-04T02:43:23.356Z,1.07
2023-08-04T02:44:40.610Z,1.05
2023-08-04T02:45:57.413Z,0.74
2023-08-04T02:47:14.486Z,1.13
2023-08-04T02:48:31.371Z,0.55
2023-08-04T02:49:48.496Z,0.67
2023-08-04T02:51:05.463Z,1.23
2023-08-04T02:52:22.461Z,1.4
2023-08-04T02:53:39.426Z,0.68
2023-08-04T02:54:56.512Z,0.64
2023-08-04T02:56:13.405Z,0.55
2023-08-04T02:57:30.491Z,0.6
2023-08-04T02:58:47.392Z,0.82
2023-08-04T03:00:04.569Z,0.75
2023-08-04T03:01:21.511Z,0.95
2023-08-04T03:02:38.635Z,1.1
2023-08-04T03:03:55.468Z,1.08
2023-08-04T03:05:12.415Z,0.91
2023-08-04T03:06:29.427Z,0.8
2023-08-04T03:07:46.436Z,0.75
2023-08-04T03:09:03.383Z,0.96
2023-08-04T03:10:20.510Z,0.84
2023-08-04T03:11:37.389Z,0.83
2023-08-04T03:12:54.454Z,0.89
2023-08-04T03:14:11.500Z,0.66
2023-08-04T03:15:28.503Z,0.79
2023-08-04T03:16:45.513Z,0.46
2023-08-04T03:18:02.546Z,1.09
2023-08-04T03:19:19.465Z,0.9
2023-08-04T03:20:36.414Z,0.7
2023-08-04T03:21:53.512Z,1.22
2023-08-04T03:23:10.456Z,0.69
2023-08-04T03:24:27.431Z,0.59
2023-08-04T03:25:44.476Z,0.67
2023-08-04T03:27:01.400Z,1.03
2023-08-04T03:28:18.505Z,1.14
2023-08-04T03:29:35.476Z,0.88
2023-08-04T03:30:52.554Z,1.2
2023-08-04T03:32:09.520Z,1.25
2023-08-04T03:33:26.537Z,0.83
2023-08-04T03:34:43.509Z,0.87
2023-08-04T03:36:00.484Z,0.96
2023-08-04T03:37:17.517Z,0.92
2023-08-04T03:38:34.547Z,0.52
2023-08-04T03:39:51.422Z,0.68
2023-08-04T03:41:08.460Z,0.66
2023-08-04T03:42:25.477Z,0.28
2023-08-04T03:43:42.610Z,0.61
2023-08-04T03:44:59.437Z,0.31
2023-08-04T03:46:16.633Z,0.12
2023-08-04T03:47:33.596Z,0
2023-08-04T03:48:50.557Z,0
2023-08-04T03:50:07.455Z,0
2023-08-04T03:51:24.483Z,0
2023-08-04T03:52:41.554Z,0
2023-08-04T03:53:58.598Z,0
2023-08-04T03:55:15.477Z,0
2023-08-04T03:56:32.564Z,0.31
2023-08-04T03:57:49.578Z,0.31
2023-08-04T03:59:06.495Z,0.49
2023-08-04T04:00:23.553Z,0.65
2023-08-04T04:01:40.632Z,0.35
2023-08-04T04:02:57.560Z,0.39
2023-08-04T04:04:14.536Z,0.28
2023-08-04T04:05:31.484Z,0.35
2023-08-04T04:06:48.651Z,0.17
2023-08-04T04:08:05.543Z,0.35
2023-08-04T04:09:22.608Z,0.25
2023-08-04T04:10:39.498Z,0.4
2023-08-04T04:11:56.667Z,0.37
2023-08-04T04:13:13.591Z,0.39
2023-08-04T04:14:30.593Z,0.43
2023-08-04T04:15:47.514Z,0.36
2023-08-04T04:17:04.589Z,0.45
2023-08-04T04:18:21.507Z,0.53
2023-08-04T04:19:38.727Z,0.39
2023-08-04T04:20:55.744Z,0.24
2023-08-04T04:22:12.655Z,0.49
2023-08-04T04:23:29.500Z,0.33
2023-08-04T04:24:46.640Z,0.4
2023-08-04T04:26:05.737Z,0.6
2023-08-04T04:27:20.622Z,0.32
2023-08-04T04:28:37.618Z,0.54
2023-08-04T04:29:54.520Z,0.57
2023-08-04T04:31:11.704Z,0.49
2023-08-04T04:32:28.653Z,0.65
2023-08-04T04:33:45.568Z,0.41
2023-08-04T04:35:02.724Z,0.74
2023-08-04T04:36:19.708Z,0.4
2023-08-04T04:37:36.769Z,0.53
2023-08-04T04:38:54.101Z,0.62
2023-08-04T04:40:10.558Z,0.45
2023-08-04T04:41:27.754Z,0.78
2023-08-04T04:42:44.578Z,0.5
2023-08-04T04:44:01.665Z,0.15
2023-08-04T04:45:18.593Z,0.43
2023-08-04T04:46:35.751Z,0.49
2023-08-04T04:47:52.648Z,0.46
2023-08-04T04:49:09.640Z,0.41
2023-08-04T04:50:26.632Z,0.74
2023-08-04T04:51:43.667Z,0.82
2023-08-04T04:53:00.620Z,0.73
2023-08-04T04:54:17.660Z,0.86
2023-08-04T04:55:34.603Z,0.58
2023-08-04T04:56:51.590Z,0.77
2023-08-04T04:58:08.615Z,0.49
2023-08-04T04:59:25.636Z,0.94
2023-08-04T05:00:42.628Z,0.73
2023-08-04T05:01:59.649Z,0.65
2023-08-04T05:03:16.677Z,0.51
2023-08-04T05:04:33.727Z,1.01
2023-08-04T05:05:50.600Z,0.41
2023-08-04T05:07:07.647Z,0.36
2023-08-04T05:08:24.714Z,0.76
2023-08-04T05:09:41.696Z,0.63
2023-08-04T05:10:58.662Z,0.82
2023-08-04T05:12:15.657Z,0.87
2023-08-04T05:13:32.645Z,0.77
2023-08-04T05:14:49.732Z,0.9
2023-08-04T05:16:06.683Z,0.94
2023-08-04T05:17:23.711Z,1.36
2023-08-04T05:18:40.610Z,1.79
2023-08-04T05:19:57.639Z,0.98
2023-08-04T05:21:14.754Z,0.78
2023-08-04T05:22:31.733Z,0.9
2023-08-04T05:23:48.819Z,0.51
2023-08-04T05:25:10.724Z,0.36
2023-08-04T05:26:22.659Z,0.36
2023-08-04T05:27:39.920Z,0
2023-08-04T05:28:56.760Z,0.43
2023-08-04T05:30:13.645Z,0.72
2023-08-04T05:31:30.785Z,0.54
2023-08-04T05:32:47.696Z,0.46
2023-08-04T05:34:04.697Z,0.63
2023-08-04T05:35:21.753Z,0.89
2023-08-04T05:36:39.075Z,0.65
2023-08-04T05:37:55.715Z,0.46
2023-08-04T05:39:12.707Z,0.81
2023-08-04T05:40:29.777Z,0.47
2023-08-04T05:41:46.870Z,0.69
2023-08-04T05:43:03.756Z,0.77
2023-08-04T05:44:20.739Z,0.89
2023-08-04T05:45:37.857Z,0.23
2023-08-04T05:46:54.756Z,0.45
2023-08-04T05:48:11.798Z,0.56
2023-08-04T05:49:28.756Z,0.85
2023-08-04T05:50:45.723Z,0.62
2023-08-04T05:52:02.760Z,0.3
2023-08-04T05:53:19.683Z,0.34
2023-08-04T05:54:36.837Z,0.76
2023-08-04T05:55:53.670Z,0.64
2023-08-04T05:57:10.842Z,0.9
2023-08-04T05:58:27.691Z,0.73
2023-08-04T05:59:44.755Z,0.66
2023-08-04T06:01:01.882Z,0.61
2023-08-04T06:02:18.823Z,0.76
2023-08-04T06:03:35.775Z,0.7
2023-08-04T06:04:52.742Z,0.17
2023-08-04T06:06:09.790Z,0.62
2023-08-04T06:07:26.809Z,0.33
2023-08-04T06:08:43.727Z,0.4
2023-08-04T06:10:01.171Z,0.34
2023-08-04T06:11:17.984Z,0.15
2023-08-04T06:12:35.469Z,0.48
2023-08-04T06:13:52.141Z,0.71
2023-08-04T06:15:08.874Z,0.72
2023-08-04T06:16:25.808Z,0.58
2023-08-04T06:17:43.319Z,0.55
2023-08-04T06:19:00.067Z,0.49
2023-08-04T06:20:16.920Z,0.62
2023-08-04T06:21:34.211Z,0.54
2023-08-04T06:22:50.733Z,0.62
2023-08-04T06:24:08.115Z,0.56
2023-08-04T06:25:25.575Z,0.63
2023-08-04T06:26:45.626Z,0.93
2023-08-04T06:28:02.850Z,0.46
2023-08-04T06:29:20.019Z,0.74
2023-08-04T06:30:37.600Z,0.33
2023-08-04T06:31:54.941Z,0.79
2023-08-04T06:33:11.862Z,0.44
2023-08-04T06:34:28.749Z,0.88
2023-08-04T06:35:45.938Z,0.61
2023-08-04T06:37:02.878Z,1
2023-08-04T06:38:19.899Z,0.78
2023-08-04T06:39:36.800Z,1.11
2023-08-04T06:40:53.803Z,1.05
2023-08-04T06:42:10.774Z,1.04
2023-08-04T06:43:27.853Z,0.69
2023-08-04T06:44:44.863Z,0.56
2023-08-04T06:46:01.935Z,0.82
2023-08-04T06:47:18.719Z,0.94
2023-08-04T06:48:35.810Z,0.52
2023-08-04T06:49:52.752Z,0.69
2023-08-04T06:51:09.847Z,0.59
2023-08-04T06:52:26.816Z,0.49
2023-08-04T06:53:43.792Z,0.92
2023-08-04T06:55:01.835Z,1.08
2023-08-04T06:56:17.950Z,1.33
2023-08-04T06:57:34.857Z,2.22
2023-08-04T06:58:51.756Z,1.56
2023-08-04T07:00:08.962Z,1.17
2023-08-04T07:01:25.864Z,1.18
2023-08-04T07:02:42.958Z,1.21
2023-08-04T07:03:59.809Z,1.95
2023-08-04T07:05:16.836Z,1.85
2023-08-04T07:06:33.816Z,2.47
2023-08-04T07:07:50.929Z,1.49
2023-08-04T07:09:07.793Z,1.96
2023-08-04T07:10:24.883Z,1.19
2023-08-04T07:11:41.830Z,1.31
2023-08-04T07:12:59.216Z,0.92
2023-08-04T07:14:15.926Z,1.21
2023-08-04T07:15:32.948Z,2
2023-08-04T07:16:50.097Z,1.36
2023-08-04T07:18:06.947Z,2.01
2023-08-04T07:19:24.203Z,2.27
2023-08-04T07:20:40.828Z,1.66
2023-08-04T07:21:57.879Z,1.79
2023-08-04T07:23:14.887Z,0.92
2023-08-04T07:24:32.472Z,1.38
2023-08-04T07:25:48.985Z,1.62
2023-08-04T07:27:05.987Z,1.06
2023-08-04T07:28:22.856Z,1.62
2023-08-04T07:29:39.872Z,1.55
2023-08-04T07:30:57.063Z,2.3
2023-08-04T07:32:14.027Z,0.55
2023-08-04T07:33:31.039Z,0.48
2023-08-04T07:34:47.982Z,1.57
2023-08-04T07:36:04.965Z,1.41
2023-08-04T07:37:21.926Z,0.64
2023-08-04T07:38:39.047Z,1.38
2023-08-04T07:39:55.909Z,1.26
2023-08-04T07:41:13.007Z,1.03
2023-08-04T07:42:30.039Z,1.36
2023-08-04T07:43:47.026Z,1.98
2023-08-04T07:45:03.844Z,1.64
2023-08-04T07:46:20.959Z,0.78
2023-08-04T07:47:37.974Z,1.5
2023-08-04T07:48:54.908Z,1.12
2023-08-04T07:50:11.967Z,1.25
2023-08-04T07:51:29.046Z,1.12
2023-08-04T07:52:45.944Z,1.28
2023-08-04T07:54:02.977Z,1.5
2023-08-04T07:55:19.992Z,1.71
2023-08-04T07:56:36.957Z,1.39
2023-08-04T07:57:57.025Z,2.02
2023-08-04T07:59:15.422Z,0.88
2023-08-04T08:00:32.268Z,1.61
2023-08-04T08:01:49.609Z,0.85
2023-08-04T08:03:05.964Z,1.47
2023-08-04T08:04:25.917Z,1.23
2023-08-04T08:05:43.213Z,1.55
2023-08-04T08:07:00.574Z,1.67
2023-08-04T08:08:17.402Z,1.87
2023-08-04T08:09:34.114Z,1.9
2023-08-04T08:10:54.965Z,1.34
2023-08-04T08:12:16.322Z,1.07
2023-08-04T08:13:33.179Z,1.54
2023-08-04T08:14:53.345Z,1.37
2023-08-04T08:16:11.145Z,1.81
2023-08-04T08:17:28.013Z,0.72
2023-08-04T08:18:45.285Z,0.94
2023-08-04T08:20:01.466Z,0.53
2023-08-04T08:21:18.199Z,0.98
2023-08-04T08:22:34.377Z,0.31
2023-08-04T08:23:51.061Z,1.12
2023-08-04T08:25:08.030Z,1.14
2023-08-04T08:26:25.351Z,2.23
2023-08-04T08:27:42.203Z,0.97
2023-08-04T08:28:59.198Z,0.98
2023-08-04T08:30:16.446Z,1.59
2023-08-04T08:31:33.156Z,1.58
2023-08-04T08:32:50.114Z,1.18
2023-08-04T08:34:07.003Z,1.7
2023-08-04T08:35:24.015Z,2.21
2023-08-04T08:36:41.336Z,0.96
2023-08-04T08:37:58.292Z,1.34
2023-08-04T08:39:15.332Z,1.47
2023-08-04T08:40:32.140Z,1.58
2023-08-04T08:41:50.083Z,1.41
2023-08-04T08:43:05.996Z,1.54
2023-08-04T08:44:22.906Z,0.85
2023-08-04T08:45:40.092Z,1.28
2023-08-04T08:46:56.523Z,0.59
2023-08-04T08:48:16.314Z,1.62
2023-08-04T08:49:33.434Z,2.01
2023-08-04T08:50:50.109Z,1.81
2023-08-04T08:52:07.187Z,2.4
2023-08-04T08:53:24.171Z,1.47
2023-08-04T08:54:41.232Z,1.4
2023-08-04T08:55:58.194Z,2.44
2023-08-04T08:57:16.610Z,1.5
2023-08-04T08:58:33.104Z,1.37
2023-08-04T08:59:50.167Z,2.21
2023-08-04T09:01:06.421Z,0.93
2023-08-04T09:02:23.416Z,1.24
2023-08-04T09:03:42.363Z,1.16
2023-08-04T09:04:59.105Z,1.74
2023-08-04T09:06:16.816Z,1.9
2023-08-04T09:07:33.530Z,0.78
2023-08-04T09:08:50.068Z,1.55
2023-08-04T09:10:07.137Z,2.18
2023-08-04T09:11:24.109Z,1.63
2023-08-04T09:12:41.065Z,2.09
2023-08-04T09:13:58.384Z,1.97
2023-08-04T09:15:15.379Z,1.14
2023-08-04T09:16:32.211Z,1.21
2023-08-04T09:17:49.236Z,0.62
2023-08-04T09:19:06.298Z,1.26
2023-08-04T09:20:23.100Z,1.21
2023-08-04T09:21:39.430Z,1.34
2023-08-04T09:22:56.188Z,1.7
2023-08-04T09:24:13.186Z,1.23
2023-08-04T09:25:30.155Z,1.32
2023-08-04T09:26:47.125Z,2.14
2023-08-04T09:28:04.093Z,1.83
2023-08-04T09:29:21.309Z,2.3
2023-08-04T09:30:38.211Z,1.73
2023-08-04T09:31:55.291Z,1.79
2023-08-04T09:33:12.100Z,0.7
2023-08-04T09:34:29.331Z,1.92
2023-08-04T09:35:46.139Z,1.91
2023-08-04T09:37:02.561Z,0.51
2023-08-04T09:38:19.208Z,2.47
2023-08-04T09:39:35.490Z,1.18
2023-08-04T09:40:52.108Z,1.35
2023-08-04T09:42:08.558Z,1.74
2023-08-04T09:43:25.320Z,2.29
2023-08-04T09:44:41.688Z,1.01
2023-08-04T09:45:58.263Z,1.15
2023-08-04T09:47:15.420Z,1.47
2023-08-04T09:48:32.250Z,1.45
2023-08-04T09:49:49.246Z,1.62
2023-08-04T09:51:06.337Z,2.56
2023-08-04T09:52:23.120Z,1.57
2023-08-04T09:53:39.536Z,0.71
2023-08-04T09:54:55.548Z,1.11
2023-08-04T09:56:11.640Z,0.51
2023-08-04T09:57:27.513Z,0.61
2023-08-04T09:58:43.526Z,0.84
2023-08-04T10:00:00.159Z,1.51
2023-08-04T10:01:17.148Z,0.97
2023-08-04T10:02:34.375Z,1.71
2023-08-04T10:03:50.594Z,1.14
2023-08-04T10:05:07.281Z,1.66
2023-08-04T10:06:24.171Z,1.83
2023-08-04T10:07:41.236Z,0.89
2023-08-04T10:08:58.185Z,1.45
2023-08-04T10:10:15.207Z,2.26
2023-08-04T10:11:31.575Z,1.28
2023-08-04T10:12:47.602Z,0.74
2023-08-04T10:14:03.752Z,0.92
2023-08-04T10:15:22.382Z,2.26
2023-08-04T10:16:37.340Z,1.78
2023-08-04T10:17:54.200Z,1.46
2023-08-04T10:19:11.220Z,1.25
2023-08-04T10:20:27.501Z,1.24
2023-08-04T10:21:44.069Z,1.37
2023-08-04T10:23:01.255Z,2.67
2023-08-04T10:24:18.178Z,1.49
2023-08-04T10:25:35.396Z,1.07
2023-08-04T10:26:52.646Z,1.61
2023-08-04T10:28:09.576Z,2.92
2023-08-04T10:29:26.580Z,2.22
2023-08-04T10:30:49.474Z,1.91
2023-08-04T10:31:59.926Z,0.79
2023-08-04T10:33:16.294Z,1.87
2023-08-04T10:34:33.322Z,2.32
2023-08-04T10:35:50.205Z,2.57
2023-08-04T10:37:07.595Z,2.52
2023-08-04T10:38:23.565Z,1.48
2023-08-04T10:39:39.554Z,1.76
2023-08-04T10:40:55.892Z,1.93
2023-08-04T10:42:11.638Z,1.74
2023-08-04T10:43:27.791Z,1.75
2023-08-04T10:44:44.825Z,2.42
2023-08-04T10:46:01.863Z,3.83
2023-08-04T10:47:18.430Z,2.47
2023-08-04T10:48:35.034Z,1.4
2023-08-04T10:49:51.640Z,1.61
2023-08-04T10:51:07.653Z,1.5
2023-08-04T10:52:23.556Z,1.13
2023-08-04T10:53:39.820Z,1.9
2023-08-04T10:54:55.905Z,3.03
2023-08-04T10:56:11.905Z,1.05
2023-08-04T10:57:27.729Z,0.86
2023-08-04T10:58:43.650Z,0.86
2023-08-04T10:59:59.785Z,1.28
2023-08-04T11:01:15.920Z,3.14
2023-08-04T11:02:32.445Z,0.78
2023-08-04T11:03:49.176Z,1.41
2023-08-04T11:05:06.617Z,2.13
2023-08-04T11:06:23.425Z,1.19
2023-08-04T11:07:40.275Z,0.33
2023-08-04T11:08:57.755Z,0.51
2023-08-04T11:10:14.607Z,1.63
2023-08-04T11:11:31.326Z,1.73
2023-08-04T11:12:48.370Z,1.15
2023-08-04T11:14:05.687Z,1.74
2023-08-04T11:15:22.280Z,1.74
2023-08-04T11:16:39.451Z,1.49
2023-08-04T11:17:56.641Z,1.34
2023-08-04T11:19:13.370Z,1.81
2023-08-04T11:20:36.217Z,1.97
2023-08-04T11:21:53.718Z,1.01
2023-08-04T11:23:14.236Z,1.56
2023-08-04T11:24:31.497Z,0.94
2023-08-04T11:25:48.569Z,2
2023-08-04T11:27:17.206Z,1.26
2023-08-04T11:28:34.467Z,2.51
2023-08-04T11:29:51.409Z,1.41
2023-08-04T11:31:11.823Z,0.99
2023-08-04T11:32:30.767Z,1.82
2023-08-04T11:33:48.366Z,1.06
2023-08-04T11:35:05.411Z,0.5
2023-08-04T11:36:22.570Z,0.81
2023-08-04T11:37:39.390Z,0.52
2023-08-04T11:38:56.557Z,1.58
2023-08-04T11:40:13.563Z,1.6
2023-08-04T11:41:30.397Z,1.29
2023-08-04T11:42:47.315Z,1.55
2023-08-04T11:44:04.536Z,0.54
2023-08-04T11:45:21.621Z,0.39
2023-08-04T11:46:38.513Z,0.8
2023-08-04T11:47:55.450Z,0.36
2023-08-04T11:49:12.345Z,0.34
2023-08-04T11:50:29.408Z,0.44
2023-08-04T11:51:46.782Z,0.69
2023-08-04T11:53:03.488Z,0.77
2023-08-04T11:54:20.569Z,1.01
2023-08-04T11:55:37.426Z,0.51
2023-08-04T11:56:54.390Z,2.05
2023-08-04T11:58:11.390Z,0.91
2023-08-04T11:59:28.568Z,0.57
2023-08-04T12:00:45.414Z,1
2023-08-04T12:02:07.535Z,1.49
2023-08-04T12:03:19.548Z,0.79
2023-08-04T12:04:36.980Z,0.54
2023-08-04T12:05:53.920Z,1.02
2023-08-04T12:07:09.759Z,0.92
2023-08-04T12:08:26.385Z,2.33
2023-08-04T12:09:42.751Z,1.4
2023-08-04T12:10:59.158Z,1.33
2023-08-04T12:12:16.516Z,1.78
2023-08-04T12:13:33.518Z,0.88
2023-08-04T12:15:00.528Z,1.06
2023-08-04T12:16:05.942Z,0.27
2023-08-04T12:17:23.137Z,1.87
2023-08-04T12:18:39.461Z,2.38
2023-08-04T12:19:56.604Z,1.81
2023-08-04T12:21:12.834Z,1.19
2023-08-04T12:22:28.893Z,0.96
2023-08-04T12:23:45.066Z,1.65
2023-08-04T12:25:00.872Z,1.25
2023-08-04T12:26:17.972Z,1.59
2023-08-04T12:27:34.589Z,1.32
2023-08-04T12:28:50.844Z,0.9
2023-08-04T12:30:07.542Z,1.44
2023-08-04T12:31:25.116Z,1.26
2023-08-04T12:32:42.647Z,0.97
2023-08-04T12:33:59.472Z,1.23
2023-08-04T12:35:17.120Z,1.58
2023-08-04T12:36:33.591Z,0.38
2023-08-04T12:37:50.584Z,1.03
2023-08-04T12:39:07.663Z,1.29
2023-08-04T12:40:24.556Z,2.47
2023-08-04T12:41:41.796Z,2.88
2023-08-04T12:42:58.518Z,1.13
2023-08-04T12:44:15.627Z,1.64
2023-08-04T12:45:32.218Z,0.76
2023-08-04T12:46:48.485Z,1.01
2023-08-04T12:48:05.893Z,1.47
2023-08-04T12:49:22.638Z,1.13
2023-08-04T12:50:39.070Z,1.36
2023-08-04T12:51:56.038Z,1.91
2023-08-04T12:53:11.193Z,2.02
2023-08-04T12:54:27.547Z,1.65
2023-08-04T12:55:44.509Z,2.1
2023-08-04T12:57:00.896Z,2.12
2023-08-04T12:58:17.878Z,2.86
2023-08-04T12:59:34.583Z,2.13
2023-08-04T13:00:51.700Z,1.53
2023-08-04T13:02:08.699Z,0.64
2023-08-04T13:03:25.545Z,1.22
2023-08-04T13:04:42.629Z,1.65
2023-08-04T13:05:59.633Z,1.31
2023-08-04T13:07:16.533Z,1.55
2023-08-04T13:08:33.597Z,1.47
2023-08-04T13:09:49.893Z,0.76
2023-08-04T13:11:05.894Z,0.86
2023-08-04T13:12:21.879Z,1.24
2023-08-04T13:13:38.151Z,1.31
2023-08-04T13:14:55.589Z,1.49
2023-08-04T13:16:12.360Z,0.94
2023-08-04T13:17:28.740Z,1.23
2023-08-04T13:18:45.476Z,1.67
2023-08-04T13:20:02.620Z,1.33
2023-08-04T13:21:19.543Z,1.26
2023-08-04T13:22:36.623Z,1.47
2023-08-04T13:23:54.753Z,1.25
2023-08-04T13:25:11.814Z,0.98
2023-08-04T13:26:28.511Z,0.84
2023-08-04T13:27:45.959Z,0.49
2023-08-04T13:29:02.609Z,1.73
2023-08-04T13:30:19.776Z,1.03
2023-08-04T13:31:40.626Z,1
2023-08-04T13:32:58.447Z,1.25
2023-08-04T13:34:16.126Z,1.62
2023-08-04T13:35:36.604Z,1.31
2023-08-04T13:36:54.230Z,1.53
2023-08-04T13:38:12.337Z,1.33
2023-08-04T13:39:31.210Z,0.82
2023-08-04T13:40:50.579Z,0.47
2023-08-04T13:42:09.406Z,0.97
2023-08-04T13:43:29.241Z,0.87
2023-08-04T13:44:47.605Z,0.59
2023-08-04T13:46:07.706Z,1.57
2023-08-04T13:47:31.621Z,0.92
2023-08-04T13:48:50.286Z,1.1
2023-08-04T13:50:11.069Z,1.51
2023-08-04T13:51:29.448Z,0.91
2023-08-04T13:52:49.359Z,0.74
2023-08-04T13:54:09.232Z,2.46
2023-08-04T13:55:27.832Z,0.94
2023-08-04T13:56:46.813Z,2.41
2023-08-04T13:58:04.146Z,3.36
2023-08-04T13:59:22.158Z,1.25
2023-08-04T14:00:44.788Z,2.69
2023-08-04T14:02:02.864Z,1.03
2023-08-04T14:03:33.882Z,1.93
2023-08-04T14:04:53.394Z,1.11
2023-08-04T14:06:12.747Z,0.74
2023-08-04T14:07:34.026Z,0.7
2023-08-04T14:08:52.718Z,0.4
2023-08-04T14:10:10.258Z,1.01
2023-08-04T14:11:30.367Z,0.6
2023-08-04T14:12:48.467Z,0.65
2023-08-04T14:14:06.639Z,0.59
2023-08-04T14:15:26.057Z,1.08
2023-08-04T14:16:46.929Z,1.29
2023-08-04T14:18:04.445Z,0.64
2023-08-04T14:19:22.626Z,0.84
2023-08-04T14:20:44.454Z,2.54
2023-08-04T14:22:04.480Z,2.42
2023-08-04T14:23:23.660Z,1.63
2023-08-04T14:24:47.816Z,0.93
2023-08-04T14:26:06.813Z,0.71
2023-08-04T14:27:31.520Z,0.24
2023-08-04T14:28:46.092Z,1.67
2023-08-04T14:30:07.150Z,0.94
2023-08-04T14:31:25.579Z,2.29
2023-08-04T14:32:47.480Z,2.72
2023-08-04T14:34:05.249Z,1.72
2023-08-04T14:35:29.332Z,0.77
2023-08-04T14:36:52.190Z,1.35
2023-08-04T14:38:13.093Z,0.79
2023-08-04T14:39:34.650Z,1.17
2023-08-04T14:40:53.189Z,1.13
2023-08-04T14:42:17.437Z,1.77
2023-08-04T14:43:36.104Z,1.33
2023-08-04T14:44:55.583Z,1.35
2023-08-04T14:46:13.566Z,1.15
2023-08-04T14:47:36.632Z,1.43
2023-08-04T14:48:54.471Z,1.85
2023-08-04T14:50:12.423Z,1.55
2023-08-04T14:51:40.423Z,1.36
2023-08-04T14:52:59.512Z,0.98
2023-08-04T14:54:19.331Z,1.38
2023-08-04T14:55:38.761Z,2.9
2023-08-04T14:56:56.588Z,1.96
2023-08-04T14:58:15.417Z,1.41
2023-08-04T14:59:35.570Z,2.94
2023-08-04T15:00:55.862Z,4.42
2023-08-04T15:02:14.499Z,3.35
2023-08-04T15:03:35.269Z,1.98
2023-08-04T15:05:04.312Z,1.62
2023-08-04T15:06:29.146Z,2.01
2023-08-04T15:07:49.489Z,2.23
2023-08-04T15:09:19.337Z,0.6
2023-08-04T15:10:38.518Z,1.84
2023-08-04T15:11:57.343Z,1.35
2023-08-04T15:13:28.644Z,0.39
2023-08-04T15:14:47.796Z,1.19
2023-08-04T15:16:07.403Z,0.7
2023-08-04T15:17:36.772Z,1.96
2023-08-04T15:18:56.585Z,1.1
2023-08-04T15:20:14.565Z,1.71
2023-08-04T15:21:39.141Z,0.87
2023-08-04T15:23:02.580Z,0.66
2023-08-04T15:24:21.730Z,0.85
2023-08-04T15:25:45.356Z,0.37
2023-08-04T15:27:04.443Z,1.26
2023-08-04T15:28:23.428Z,1.11
2023-08-04T15:29:43.554Z,1.09
2023-08-04T15:31:04.234Z,0.64
2023-08-04T15:32:25.880Z,0.98
2023-08-04T15:33:46.463Z,0.71
2023-08-04T15:35:05.464Z,0.5
2023-08-04T15:36:25.646Z,1.37
2023-08-04T15:37:48.192Z,1.17
2023-08-04T15:39:08.450Z,0.61
2023-08-04T15:40:28.278Z,0.99
2023-08-04T15:41:59.917Z,0.52
2023-08-04T15:43:18.438Z,0.75
2023-08-04T15:44:37.548Z,0.96
2023-08-04T15:46:03.066Z,0.55
2023-08-04T15:47:21.578Z,0.38
2023-08-04T15:48:42.653Z,1.09
2023-08-04T15:50:00.697Z,0.94
2023-08-04T15:51:23.001Z,0.65
2023-08-04T15:52:50.535Z,0.63
2023-08-04T15:54:15.204Z,1.12
2023-08-04T15:55:36.304Z,0.65
2023-08-04T15:56:55.586Z,0.33
2023-08-04T15:58:14.574Z,0.42
2023-08-04T15:59:31.781Z,0.21
2023-08-04T16:00:48.911Z,0.39
2023-08-04T16:02:05.793Z,0.68
2023-08-04T16:03:22.939Z,0.47
2023-08-04T16:04:39.969Z,0.39
2023-08-04T16:05:56.781Z,0.54
2023-08-04T16:07:13.917Z,0.75
2023-08-04T16:08:30.882Z,0.73
2023-08-04T16:09:47.812Z,0.81
2023-08-04T16:11:04.934Z,1.11
2023-08-04T16:12:21.838Z,0.8
2023-08-04T16:13:38.958Z,0.74
2023-08-04T16:14:55.885Z,0.68
2023-08-04T16:16:12.858Z,0.62
2023-08-04T16:17:29.959Z,0.77
2023-08-04T16:18:46.869Z,0.67
2023-08-04T16:20:03.919Z,0.61
2023-08-04T16:21:21.141Z,0.43
2023-08-04T16:22:37.919Z,0.63
2023-08-04T16:23:54.820Z,0.39
2023-08-04T16:25:12.047Z,0.42
2023-08-04T16:26:28.892Z,0.37
2023-08-04T16:27:46.006Z,0.5
2023-08-04T16:29:02.805Z,0.22
2023-08-04T16:30:19.943Z,0.23
2023-08-04T16:31:36.924Z,0.18
2023-08-04T16:32:53.951Z,0.13
2023-08-04T16:34:10.866Z,0.15
2023-08-04T16:35:27.870Z,0.47
2023-08-04T16:36:45.236Z,0.38
2023-08-04T16:38:01.911Z,0.4
2023-08-04T16:39:18.870Z,0.47
2023-08-04T16:40:35.937Z,0.39
2023-08-04T16:41:52.940Z,0.37
2023-08-04T16:43:09.876Z,0.47
2023-08-04T16:44:26.994Z,0.48
2023-08-04T16:45:43.952Z,0.65
2023-08-04T16:47:01.047Z,0.46
2023-08-04T16:48:17.967Z,0.46
2023-08-04T16:49:34.851Z,0.5
2023-08-04T16:50:51.934Z,0.63
2023-08-04T16:52:09.002Z,0.59
2023-08-04T16:53:25.917Z,0.48
2023-08-04T16:54:42.895Z,0.46
2023-08-04T16:55:59.972Z,0.5
2023-08-04T16:57:17.048Z,0.07
2023-08-04T16:58:34.040Z,0
2023-08-04T16:59:50.971Z,0.44
2023-08-04T17:01:07.941Z,0.53
2023-08-04T17:02:25.000Z,0.44
2023-08-04T17:03:41.977Z,0.63
2023-08-04T17:04:58.971Z,0.66
2023-08-04T17:06:16.188Z,0.48
2023-08-04T17:07:32.927Z,0.74
2023-08-04T17:08:49.986Z,0.54
2023-08-04T17:10:06.918Z,0.45
2023-08-04T17:11:24.046Z,0.26
2023-08-04T17:12:41.063Z,0.15
2023-08-04T17:13:58.056Z,0.45
2023-08-04T17:15:26.399Z,0.38
2023-08-04T17:16:31.990Z,0.3
2023-08-04T17:17:49.156Z,0.8